Catawba, WI (54515)

8:29 AM CDT on October 24, 2014 (GMT -0500)
Cummings Maple Acres | Change Station
CLOSE
Current Station
Personal Weather Station
Location: Phillips, WI
Elevation: 1542 ft
Nearby Weather Stations

Elev 1542 ft 45.64 °N, 90.34 °W | Updated 1 second ago

Fog
Fog
44.8 °F
Feels Like 45 °F
N
2.0
Wind Variable Wind from SSE
Gusts 5.0 mph

Today
High -- | Low -- °F
--% Chance of Precip.
Yesterday
High -- | Low -- °F
Precip. -- in
7:30 AM 6:01 PM
New Moon, 0% visible
Pressure 29.97 in
Visibility 0.5 miles
Clouds Overcast 200 ft
Windchill 45 °F
Dew Point 44 °F
Humidity 95%
Rainfall 0.00 in
Snow Depth Not available.
UV 0 out of 12
Pollen 1.30 out of 12
Air Quality Not available.
Flu Activity Sporadic
METAR KPBH 241315Z AUTO 17007KT 1/2SM FG OVC002 07/07 A2997 RMK AO2 T00660066

More Conditions Fewer Conditions

Pressure 29.97 in
Visibility 0.5 miles
Clouds Overcast 200 ft
Windchill 45 °F
Dew Point 44 °F
Humidity 95%
Rainfall 0.00 in
Snow Depth Not available.
UV 0 out of 12
Pollen 1.30 out of 12
Air Quality Not available.
Flu Activity Sporadic
METAR KPBH 241315Z AUTO 17007KT 1/2SM FG OVC002 07/07 A2997 RMK AO2 T00660066

More Conditions Fewer Conditions

10-Day Weather Forecast

Almanac

Astronomy

Oct. 24, 2014 Rise Set
Actual Time 7:30 AM CDT 6:01 PM CDT
Civil Twilight 7:00 AM CDT 6:31 PM CDT
Nautical Twilight 6:25 AM CDT 7:06 PM CDT
Astronomical Twilight 5:51 AM CDT 7:40 PM CDT
Moon 8:11 AM CDT 6:39 PM CDT
Length of Visible Light 11h 31m
Length of Day
10h 30m
Tomorrow will be 2m 59s shorter.
New Moon, 0% of the Moon is Illuminated
Today
New Moon
Oct 30
First Quarter
Nov 6
Full
Nov 14
Last Quarter
Nov 22
New

Today's Extremes

State Highs State Lows

Community

WunderPhotos

Upload Photos

1,764,549 photos uploaded!

WunderBlogs® & News

Nearby

Snow Depth

Station Depth Elevation
No new snow has been reported.

Earthquake Activity

City Distance Mag. Time & Date
No recent earthquake activity has been reported nearby.
Minimum magnitude displayed is 2.5.

Coastal Water Temperatures

Place Temperature
No Stations Reporting

Nearby Weather Stations